createdAt,value
2023-01-17T00:03:33.629Z,71.53
2023-01-17T00:08:01.067Z,71.45
2023-01-17T00:25:20.047Z,71.69
2023-01-17T00:29:28.511Z,71.65
2023-01-17T00:33:36.898Z,71.66
2023-01-17T01:03:29.414Z,71.87
2023-01-17T01:07:56.919Z,71.91
2023-01-17T01:12:24.336Z,72.08
2023-01-17T01:16:51.325Z,72.03
2023-01-17T01:21:10.236Z,72.05
2023-01-17T01:25:46.044Z,72.21
2023-01-17T01:42:58.564Z,72.51
2023-01-17T01:47:21.782Z,72.51
2023-01-17T02:04:44.283Z,72.73
2023-01-17T02:09:11.993Z,72.59
2023-01-17T02:13:40.577Z,72.68
2023-01-17T02:18:25.608Z,72.81
2023-01-17T02:22:55.440Z,72.74
2023-01-17T02:31:33.158Z,72.84
2023-01-17T02:36:10.393Z,73.12
2023-01-17T02:40:39.574Z,73.16
2023-01-17T02:44:58.251Z,73.20
2023-01-17T03:12:34.687Z,73.23
2023-01-17T03:17:03.492Z,73.38
2023-01-17T03:21:32.645Z,73.33
2023-01-17T03:26:01.821Z,73.38
2023-01-17T03:30:20.890Z,73.37
2023-01-17T03:34:47.590Z,73.52
2023-01-17T03:39:16.773Z,73.54
2023-01-17T03:43:39.023Z,73.43
2023-01-17T04:09:20.668Z,73.50
2023-01-17T04:13:49.479Z,73.49
2023-01-17T04:18:18.695Z,73.48
2023-01-17T04:22:39.801Z,73.45
2023-01-17T04:26:50.072Z,73.49
2023-01-17T05:08:33.613Z,73.37
2023-01-17T05:12:32.571Z,73.41
2023-01-17T05:16:54.407Z,73.39
2023-01-17T05:21:13.638Z,73.46
2023-01-17T05:25:44.196Z,73.18
2023-01-17T05:52:28.682Z,73.32
2023-01-17T05:56:57.397Z,73.33
2023-01-17T06:01:20.396Z,73.24
2023-01-17T06:05:42.059Z,73.16
2023-01-17T06:09:51.998Z,73.34
2023-01-17T06:27:09.771Z,73.05
2023-01-17T06:31:38.603Z,73.19
2023-01-17T06:35:57.066Z,73.10
2023-01-17T06:40:27.016Z,73.16
2023-01-17T07:01:08.632Z,73.12
2023-01-17T07:05:37.990Z,73.06
2023-01-17T07:10:07.345Z,72.86
2023-01-17T07:14:26.893Z,72.94
2023-01-17T07:18:54.841Z,73.19
2023-01-17T07:23:14.895Z,73.21
2023-01-17T07:27:30.835Z,73.35
2023-01-17T07:31:34.533Z,73.38
2023-01-17T07:35:21.363Z,73.43
2023-01-17T07:39:38.606Z,73.31
2023-01-17T07:43:57.391Z,73.38
2023-01-17T09:00:04.483Z,73.58
2023-01-17T09:04:10.292Z,73.41
2023-01-17T09:08:15.103Z,73.78
2023-01-17T09:12:25.948Z,73.95
2023-01-17T09:16:49.059Z,73.48
2023-01-17T09:21:18.523Z,73.87
2023-01-17T09:25:40.199Z,74.00
2023-01-17T09:34:10.593Z,73.25
2023-01-17T09:56:59.805Z,73.13
2023-01-17T10:01:04.121Z,73.33
2023-01-17T10:05:31.597Z,73.05
2023-01-17T10:09:54.428Z,73.25
2023-01-17T10:14:35.243Z,73.23
2023-01-17T10:19:22.224Z,73.06
2023-01-17T11:28:33.922Z,71.31
2023-01-17T11:33:02.964Z,71.27
2023-01-17T11:37:31.701Z,70.91
2023-01-17T11:41:53.563Z,71.33
2023-01-17T11:46:21.886Z,71.39
2023-01-17T11:51:01.578Z,71.21
2023-01-17T11:55:26.644Z,71.50
2023-01-17T12:22:23.975Z,71.18
2023-01-17T12:27:11.309Z,71.07
2023-01-17T12:31:41.709Z,70.65
2023-01-17T12:36:07.748Z,70.79
2023-01-17T12:40:31.373Z,70.50
2023-01-17T13:01:39.999Z,70.33
2023-01-17T13:06:10.745Z,70.20
2023-01-17T13:10:46.707Z,69.84
2023-01-17T13:15:08.835Z,69.75
2023-01-17T13:19:03.096Z,69.47
2023-01-17T13:23:24.746Z,69.55
2023-01-17T13:27:45.457Z,69.23
2023-01-17T14:06:19.064Z,68.66
2023-01-17T14:10:09.838Z,68.37
2023-01-17T14:14:32.701Z,68.52
2023-01-17T14:18:31.409Z,68.74
2023-01-17T14:22:59.512Z,69.05
2023-01-17T14:27:28.499Z,69.42
2023-01-17T14:31:57.911Z,69.37
2023-01-17T14:36:19.735Z,69.41
2023-01-17T14:52:19.501Z,69.94
2023-01-17T14:56:29.863Z,69.90
2023-01-17T15:00:50.504Z,69.81
2023-01-17T15:05:18.764Z,70.07
2023-01-17T15:09:27.888Z,70.34
2023-01-17T15:13:49.721Z,70.49
2023-01-17T15:18:18.592Z,70.55
2023-01-17T15:22:41.994Z,70.72
2023-01-17T15:26:51.243Z,70.79
2023-01-17T15:31:04.576Z,70.67
2023-01-17T15:35:19.875Z,70.83
2023-01-17T15:39:28.645Z,70.96
2023-01-17T15:43:42.114Z,71.02
2023-01-17T15:48:21.949Z,71.09
2023-01-17T15:52:56.124Z,71.20
2023-01-17T15:57:37.384Z,71.25
2023-01-17T16:23:16.820Z,71.43
2023-01-17T16:27:45.591Z,71.41
2023-01-17T16:32:06.639Z,71.58
2023-01-17T16:36:17.763Z,71.70
2023-01-17T16:40:45.369Z,71.74
2023-01-17T16:45:03.252Z,71.73
2023-01-17T16:53:33.226Z,71.82
2023-01-17T16:58:02.734Z,71.82
2023-01-17T17:02:33.328Z,71.61
2023-01-17T17:20:02.528Z,71.86
2023-01-17T17:24:19.800Z,72.12
2023-01-17T17:28:48.410Z,72.01
2023-01-17T17:33:20.235Z,72.11
2023-01-17T17:59:07.373Z,72.08
2023-01-17T18:03:18.926Z,72.41
2023-01-17T18:07:49.382Z,72.35
2023-01-17T18:29:20.930Z,72.30
2023-01-17T18:33:50.095Z,72.61
2023-01-17T18:38:10.004Z,72.31
2023-01-17T18:59:54.367Z,72.60
2023-01-17T19:04:28.304Z,72.50
2023-01-17T19:30:31.675Z,72.68
2023-01-17T19:35:00.648Z,72.70
2023-01-17T19:39:23.447Z,72.66
2023-01-17T19:43:51.192Z,72.84
2023-01-17T20:09:36.286Z,72.79
2023-01-17T20:14:05.120Z,73.03
2023-01-17T20:26:35.874Z,73.23
2023-01-17T20:31:04.869Z,73.01
2023-01-17T20:35:33.519Z,72.95
2023-01-17T20:40:01.798Z,73.11
2023-01-17T21:10:13.877Z,73.46
2023-01-17T21:14:43.212Z,73.28
2023-01-17T21:19:05.448Z,73.21
2023-01-17T21:46:23.930Z,73.12
2023-01-17T21:50:52.803Z,73.12
2023-01-17T21:55:22.904Z,73.26
2023-01-17T21:59:51.588Z,73.15
2023-01-17T22:04:19.468Z,73.67
2023-01-17T22:08:49.024Z,73.27
2023-01-17T22:32:45.110Z,74.05
2023-01-17T22:37:14.303Z,73.88
2023-01-17T22:41:37.015Z,74.03
2023-01-17T22:45:56.287Z,73.97
2023-01-17T23:04:05.919Z,73.82
2023-01-17T23:08:34.659Z,74.11
2023-01-17T23:40:09.866Z,74.18
2023-01-17T23:44:39.176Z,74.39
